sensor_id;sensor_type;location;lat;lon;timestamp;temperature;humidity
82231;DHT22;71832;45.138;9.816;2024-02-26T00:01:57;8.40;92.00
82231;DHT22;71832;45.138;9.816;2024-02-26T00:04:26;8.40;92.20
82231;DHT22;71832;45.138;9.816;2024-02-26T00:06:55;8.40;92.40
82231;DHT22;71832;45.138;9.816;2024-02-26T00:09:24;8.40;92.00
82231;DHT22;71832;45.138;9.816;2024-02-26T00:11:52;8.40;91.90
82231;DHT22;71832;45.138;9.816;2024-02-26T00:14:23;8.40;91.70
82231;DHT22;71832;45.138;9.816;2024-02-26T00:16:52;8.40;91.70
82231;DHT22;71832;45.138;9.816;2024-02-26T00:19:21;8.30;91.80
82231;DHT22;71832;45.138;9.816;2024-02-26T00:21:49;8.30;91.90
82231;DHT22;71832;45.138;9.816;2024-02-26T00:24:17;8.30;92.00
82231;DHT22;71832;45.138;9.816;2024-02-26T00:26:45;8.30;92.10
82231;DHT22;71832;45.138;9.816;2024-02-26T00:29:13;8.30;92.20
82231;DHT22;71832;45.138;9.816;2024-02-26T00:31:42;8.30;92.30
82231;DHT22;71832;45.138;9.816;2024-02-26T00:34:10;8.30;92.40
82231;DHT22;71832;45.138;9.816;2024-02-26T00:36:38;8.30;92.40
82231;DHT22;71832;45.138;9.816;2024-02-26T00:39:07;8.30;92.40
82231;DHT22;71832;45.138;9.816;2024-02-26T00:41:40;8.30;92.40
82231;DHT22;71832;45.138;9.816;2024-02-26T00:44:08;8.30;92.30
82231;DHT22;71832;45.138;9.816;2024-02-26T00:46:37;8.30;92.50
82231;DHT22;71832;45.138;9.816;2024-02-26T00:49:05;8.30;92.50
82231;DHT22;71832;45.138;9.816;2024-02-26T00:51:33;8.30;92.20
82231;DHT22;71832;45.138;9.816;2024-02-26T00:54:01;8.30;92.10
82231;DHT22;71832;45.138;9.816;2024-02-26T00:56:30;8.30;91.80
82231;DHT22;71832;45.138;9.816;2024-02-26T00:58:59;8.30;91.50
82231;DHT22;71832;45.138;9.816;2024-02-26T01:01:28;8.30;91.70
82231;DHT22;71832;45.138;9.816;2024-02-26T01:03:56;8.30;91.70
82231;DHT22;71832;45.138;9.816;2024-02-26T01:06:24;8.30;91.60
82231;DHT22;71832;45.138;9.816;2024-02-26T01:08:52;8.20;91.70
82231;DHT22;71832;45.138;9.816;2024-02-26T01:11:21;8.30;91.50
82231;DHT22;71832;45.138;9.816;2024-02-26T01:13:50;8.30;90.80
82231;DHT22;71832;45.138;9.816;2024-02-26T01:16:24;8.20;90.50
82231;DHT22;71832;45.138;9.816;2024-02-26T01:18:52;8.30;90.30
82231;DHT22;71832;45.138;9.816;2024-02-26T01:21:20;8.30;90.40
82231;DHT22;71832;45.138;9.816;2024-02-26T01:23:48;8.30;90.20
82231;DHT22;71832;45.138;9.816;2024-02-26T01:26:17;8.30;90.30
82231;DHT22;71832;45.138;9.816;2024-02-26T01:28:46;8.30;90.50
82231;DHT22;71832;45.138;9.816;2024-02-26T01:31:14;8.30;90.60
82231;DHT22;71832;45.138;9.816;2024-02-26T01:33:43;8.30;90.50
82231;DHT22;71832;45.138;9.816;2024-02-26T01:36:11;8.30;90.20
82231;DHT22;71832;45.138;9.816;2024-02-26T01:38:40;8.30;90.10
82231;DHT22;71832;45.138;9.816;2024-02-26T01:41:09;8.30;90.00
82231;DHT22;71832;45.138;9.816;2024-02-26T01:43:38;8.30;89.80
82231;DHT22;71832;45.138;9.816;2024-02-26T01:46:08;8.30;89.80
82231;DHT22;71832;45.138;9.816;2024-02-26T01:48:38;8.30;89.90
82231;DHT22;71832;45.138;9.816;2024-02-26T01:51:06;8.30;90.10
82231;DHT22;71832;45.138;9.816;2024-02-26T01:53:35;8.30;90.00
82231;DHT22;71832;45.138;9.816;2024-02-26T01:56:04;8.30;90.30
82231;DHT22;71832;45.138;9.816;2024-02-26T01:58:33;8.30;90.60
82231;DHT22;71832;45.138;9.816;2024-02-26T02:01:03;8.30;90.60
82231;DHT22;71832;45.138;9.816;2024-02-26T02:03:31;8.20;91.00
82231;DHT22;71832;45.138;9.816;2024-02-26T02:05:59;8.20;91.60
82231;DHT22;71832;45.138;9.816;2024-02-26T02:08:28;8.20;91.70
82231;DHT22;71832;45.138;9.816;2024-02-26T02:10:57;8.20;91.70
82231;DHT22;71832;45.138;9.816;2024-02-26T02:13:27;8.20;91.60
82231;DHT22;71832;45.138;9.816;2024-02-26T02:15:55;8.20;91.40
82231;DHT22;71832;45.138;9.816;2024-02-26T02:18:24;8.20;91.30
82231;DHT22;71832;45.138;9.816;2024-02-26T02:20:54;8.20;91.40
82231;DHT22;71832;45.138;9.816;2024-02-26T02:23:23;8.20;91.70
82231;DHT22;71832;45.138;9.816;2024-02-26T02:25:52;8.20;92.00
82231;DHT22;71832;45.138;9.816;2024-02-26T02:28:23;8.20;92.40
82231;DHT22;71832;45.138;9.816;2024-02-26T02:30:52;8.20;92.60
82231;DHT22;71832;45.138;9.816;2024-02-26T02:33:21;8.20;92.80
82231;DHT22;71832;45.138;9.816;2024-02-26T02:35:50;8.20;92.70
82231;DHT22;71832;45.138;9.816;2024-02-26T02:38:21;8.20;93.00
82231;DHT22;71832;45.138;9.816;2024-02-26T02:40:51;8.30;92.90
82231;DHT22;71832;45.138;9.816;2024-02-26T02:43:20;8.20;93.00
82231;DHT22;71832;45.138;9.816;2024-02-26T02:45:49;8.20;93.30
82231;DHT22;71832;45.138;9.816;2024-02-26T02:48:17;8.20;93.20
82231;DHT22;71832;45.138;9.816;2024-02-26T02:50:46;8.20;93.50
82231;DHT22;71832;45.138;9.816;2024-02-26T02:53:14;8.20;93.10
82231;DHT22;71832;45.138;9.816;2024-02-26T02:55:43;8.20;92.90
82231;DHT22;71832;45.138;9.816;2024-02-26T02:58:11;8.20;93.10
82231;DHT22;71832;45.138;9.816;2024-02-26T03:00:40;8.20;93.50
82231;DHT22;71832;45.138;9.816;2024-02-26T03:03:08;8.20;93.90
82231;DHT22;71832;45.138;9.816;2024-02-26T03:05:36;8.20;93.90
82231;DHT22;71832;45.138;9.816;2024-02-26T03:08:05;8.20;94.10
82231;DHT22;71832;45.138;9.816;2024-02-26T03:10:33;8.20;94.20
82231;DHT22;71832;45.138;9.816;2024-02-26T03:13:02;8.20;94.40
82231;DHT22;71832;45.138;9.816;2024-02-26T03:15:33;8.20;94.60
82231;DHT22;71832;45.138;9.816;2024-02-26T03:18:01;8.20;94.70
82231;DHT22;71832;45.138;9.816;2024-02-26T03:20:29;8.20;94.60
82231;DHT22;71832;45.138;9.816;2024-02-26T03:22:58;8.20;94.50
82231;DHT22;71832;45.138;9.816;2024-02-26T03:25:26;8.20;94.70
82231;DHT22;71832;45.138;9.816;2024-02-26T03:27:55;8.20;94.60
82231;DHT22;71832;45.138;9.816;2024-02-26T03:30:23;8.20;94.60
82231;DHT22;71832;45.138;9.816;2024-02-26T03:32:52;8.20;94.50
82231;DHT22;71832;45.138;9.816;2024-02-26T03:35:21;8.20;94.60
82231;DHT22;71832;45.138;9.816;2024-02-26T03:37:50;8.20;94.80
82231;DHT22;71832;45.138;9.816;2024-02-26T03:40:19;8.20;95.00
82231;DHT22;71832;45.138;9.816;2024-02-26T03:42:46;8.20;95.00
82231;DHT22;71832;45.138;9.816;2024-02-26T03:45:14;8.20;95.00
82231;DHT22;71832;45.138;9.816;2024-02-26T03:47:43;8.20;94.80
82231;DHT22;71832;45.138;9.816;2024-02-26T03:50:11;8.20;94.80
82231;DHT22;71832;45.138;9.816;2024-02-26T03:52:39;8.20;95.00
82231;DHT22;71832;45.138;9.816;2024-02-26T03:55:07;8.20;95.20
82231;DHT22;71832;45.138;9.816;2024-02-26T03:57:35;8.20;95.30
82231;DHT22;71832;45.138;9.816;2024-02-26T04:00:03;8.20;95.50
82231;DHT22;71832;45.138;9.816;2024-02-26T04:02:31;8.30;95.40
82231;DHT22;71832;45.138;9.816;2024-02-26T04:05:00;8.20;95.50
82231;DHT22;71832;45.138;9.816;2024-02-26T04:07:28;8.20;95.50
82231;DHT22;71832;45.138;9.816;2024-02-26T04:09:56;8.30;95.50
82231;DHT22;71832;45.138;9.816;2024-02-26T04:12:25;8.30;95.50
82231;DHT22;71832;45.138;9.816;2024-02-26T04:14:53;8.30;95.70
82231;DHT22;71832;45.138;9.816;2024-02-26T04:17:21;8.30;95.80
82231;DHT22;71832;45.138;9.816;2024-02-26T04:19:50;8.20;95.70
82231;DHT22;71832;45.138;9.816;2024-02-26T04:22:18;8.20;96.00
82231;DHT22;71832;45.138;9.816;2024-02-26T04:24:46;8.20;96.10
82231;DHT22;71832;45.138;9.816;2024-02-26T04:27:14;8.20;96.30
82231;DHT22;71832;45.138;9.816;2024-02-26T04:29:43;8.20;96.30
82231;DHT22;71832;45.138;9.816;2024-02-26T04:32:12;8.20;96.80
82231;DHT22;71832;45.138;9.816;2024-02-26T04:34:40;8.20;96.50
82231;DHT22;71832;45.138;9.816;2024-02-26T04:37:09;8.20;95.70
82231;DHT22;71832;45.138;9.816;2024-02-26T04:39:38;8.20;95.30
82231;DHT22;71832;45.138;9.816;2024-02-26T04:42:07;8.20;95.50
82231;DHT22;71832;45.138;9.816;2024-02-26T04:44:35;8.20;95.80
82231;DHT22;71832;45.138;9.816;2024-02-26T04:47:04;8.20;96.10
82231;DHT22;71832;45.138;9.816;2024-02-26T04:49:34;8.20;96.10
82231;DHT22;71832;45.138;9.816;2024-02-26T04:52:03;8.20;96.40
82231;DHT22;71832;45.138;9.816;2024-02-26T04:54:31;8.20;96.70
82231;DHT22;71832;45.138;9.816;2024-02-26T04:56:58;8.20;97.10
82231;DHT22;71832;45.138;9.816;2024-02-26T04:59:27;8.20;97.10
82231;DHT22;71832;45.138;9.816;2024-02-26T05:01:55;8.20;97.20
82231;DHT22;71832;45.138;9.816;2024-02-26T05:04:24;8.20;97.40
82231;DHT22;71832;45.138;9.816;2024-02-26T05:06:53;8.20;97.30
82231;DHT22;71832;45.138;9.816;2024-02-26T05:09:21;8.10;97.60
82231;DHT22;71832;45.138;9.816;2024-02-26T05:11:49;8.10;97.50
82231;DHT22;71832;45.138;9.816;2024-02-26T05:14:18;8.10;97.50
82231;DHT22;71832;45.138;9.816;2024-02-26T05:16:46;8.10;97.50
82231;DHT22;71832;45.138;9.816;2024-02-26T05:19:15;8.10;97.60
82231;DHT22;71832;45.138;9.816;2024-02-26T05:21:42;8.10;97.70
82231;DHT22;71832;45.138;9.816;2024-02-26T05:24:11;8.10;97.30
82231;DHT22;71832;45.138;9.816;2024-02-26T05:26:40;8.10;97.30
82231;DHT22;71832;45.138;9.816;2024-02-26T05:29:09;8.10;97.50
82231;DHT22;71832;45.138;9.816;2024-02-26T05:31:38;8.10;97.70
82231;DHT22;71832;45.138;9.816;2024-02-26T05:34:07;8.10;97.90
82231;DHT22;71832;45.138;9.816;2024-02-26T05:36:35;8.10;98.00
82231;DHT22;71832;45.138;9.816;2024-02-26T05:39:04;8.10;98.20
82231;DHT22;71832;45.138;9.816;2024-02-26T05:41:33;8.10;98.10
82231;DHT22;71832;45.138;9.816;2024-02-26T05:44:02;8.10;98.20
82231;DHT22;71832;45.138;9.816;2024-02-26T05:46:31;8.10;98.20
82231;DHT22;71832;45.138;9.816;2024-02-26T05:48:59;8.10;98.20
82231;DHT22;71832;45.138;9.816;2024-02-26T05:51:28;8.10;98.10
82231;DHT22;71832;45.138;9.816;2024-02-26T05:54:01;8.10;98.20
82231;DHT22;71832;45.138;9.816;2024-02-26T05:56:30;8.10;98.30
82231;DHT22;71832;45.138;9.816;2024-02-26T05:58:58;8.10;98.30
82231;DHT22;71832;45.138;9.816;2024-02-26T06:01:26;8.10;98.20
82231;DHT22;71832;45.138;9.816;2024-02-26T06:03:53;8.10;98.20
82231;DHT22;71832;45.138;9.816;2024-02-26T06:06:22;8.10;98.20
82231;DHT22;71832;45.138;9.816;2024-02-26T06:08:51;8.10;98.30
82231;DHT22;71832;45.138;9.816;2024-02-26T06:11:19;8.10;98.30
82231;DHT22;71832;45.138;9.816;2024-02-26T06:13:51;8.10;98.20
82231;DHT22;71832;45.138;9.816;2024-02-26T06:16:20;8.10;98.20
82231;DHT22;71832;45.138;9.816;2024-02-26T06:18:49;8.10;98.50
82231;DHT22;71832;45.138;9.816;2024-02-26T06:21:17;8.00;98.40
82231;DHT22;71832;45.138;9.816;2024-02-26T06:23:45;8.00;98.50
82231;DHT22;71832;45.138;9.816;2024-02-26T06:26:12;8.10;98.60
82231;DHT22;71832;45.138;9.816;2024-02-26T06:28:40;8.00;98.50
82231;DHT22;71832;45.138;9.816;2024-02-26T06:31:08;8.00;98.60
82231;DHT22;71832;45.138;9.816;2024-02-26T06:33:37;8.00;98.60
82231;DHT22;71832;45.138;9.816;2024-02-26T06:36:06;8.00;98.70
82231;DHT22;71832;45.138;9.816;2024-02-26T06:38:34;8.00;98.60
82231;DHT22;71832;45.138;9.816;2024-02-26T06:41:03;8.00;98.80
82231;DHT22;71832;45.138;9.816;2024-02-26T06:43:32;8.00;98.60
82231;DHT22;71832;45.138;9.816;2024-02-26T06:46:00;8.00;98.80
82231;DHT22;71832;45.138;9.816;2024-02-26T06:48:29;8.00;99.00
82231;DHT22;71832;45.138;9.816;2024-02-26T06:50:57;8.00;98.70
82231;DHT22;71832;45.138;9.816;2024-02-26T06:53:26;8.10;98.80
82231;DHT22;71832;45.138;9.816;2024-02-26T06:55:55;8.00;98.90
82231;DHT22;71832;45.138;9.816;2024-02-26T06:58:23;8.10;99.00
82231;DHT22;71832;45.138;9.816;2024-02-26T07:00:52;8.10;98.90
82231;DHT22;71832;45.138;9.816;2024-02-26T07:03:21;8.10;98.70
82231;DHT22;71832;45.138;9.816;2024-02-26T07:05:50;8.10;98.60
82231;DHT22;71832;45.138;9.816;2024-02-26T07:08:19;8.10;98.50
82231;DHT22;71832;45.138;9.816;2024-02-26T07:10:48;8.10;98.60
82231;DHT22;71832;45.138;9.816;2024-02-26T07:13:17;8.20;98.40
82231;DHT22;71832;45.138;9.816;2024-02-26T07:15:45;8.10;98.60
82231;DHT22;71832;45.138;9.816;2024-02-26T07:18:13;8.10;98.50
82231;DHT22;71832;45.138;9.816;2024-02-26T07:20:41;8.10;98.50
82231;DHT22;71832;45.138;9.816;2024-02-26T07:23:09;8.10;98.60
82231;DHT22;71832;45.138;9.816;2024-02-26T07:25:38;8.10;98.60
82231;DHT22;71832;45.138;9.816;2024-02-26T07:28:07;8.10;98.70
82231;DHT22;71832;45.138;9.816;2024-02-26T07:30:35;8.20;98.70
82231;DHT22;71832;45.138;9.816;2024-02-26T07:33:04;8.20;98.70
82231;DHT22;71832;45.138;9.816;2024-02-26T07:35:33;8.20;98.80
82231;DHT22;71832;45.138;9.816;2024-02-26T07:38:03;8.20;98.60
82231;DHT22;71832;45.138;9.816;2024-02-26T07:40:32;8.20;98.70
82231;DHT22;71832;45.138;9.816;2024-02-26T07:43:00;8.20;98.80
82231;DHT22;71832;45.138;9.816;2024-02-26T07:45:29;8.20;98.70
82231;DHT22;71832;45.138;9.816;2024-02-26T07:47:58;8.20;98.80
82231;DHT22;71832;45.138;9.816;2024-02-26T07:50:26;8.30;98.80
82231;DHT22;71832;45.138;9.816;2024-02-26T07:52:55;8.30;98.70
82231;DHT22;71832;45.138;9.816;2024-02-26T07:55:24;8.30;98.50
82231;DHT22;71832;45.138;9.816;2024-02-26T07:57:53;8.30;98.60
82231;DHT22;71832;45.138;9.816;2024-02-26T08:00:21;8.30;98.70
82231;DHT22;71832;45.138;9.816;2024-02-26T08:02:50;8.30;98.60
82231;DHT22;71832;45.138;9.816;2024-02-26T08:05:18;8.30;98.50
82231;DHT22;71832;45.138;9.816;2024-02-26T08:07:47;8.40;98.50
82231;DHT22;71832;45.138;9.816;2024-02-26T08:10:16;8.30;98.60
82231;DHT22;71832;45.138;9.816;2024-02-26T08:12:44;8.30;99.00
82231;DHT22;71832;45.138;9.816;2024-02-26T08:15:13;8.30;99.10
82231;DHT22;71832;45.138;9.816;2024-02-26T08:17:40;8.30;99.00
82231;DHT22;71832;45.138;9.816;2024-02-26T08:20:09;8.40;98.50
82231;DHT22;71832;45.138;9.816;2024-02-26T08:22:37;8.40;98.10
82231;DHT22;71832;45.138;9.816;2024-02-26T08:25:06;8.40;97.80
82231;DHT22;71832;45.138;9.816;2024-02-26T08:27:36;8.40;97.70
82231;DHT22;71832;45.138;9.816;2024-02-26T08:30:04;8.40;97.60
82231;DHT22;71832;45.138;9.816;2024-02-26T08:32:32;8.40;97.80
82231;DHT22;71832;45.138;9.816;2024-02-26T08:35:00;8.40;98.20
82231;DHT22;71832;45.138;9.816;2024-02-26T08:37:28;8.40;98.40
82231;DHT22;71832;45.138;9.816;2024-02-26T08:39:55;8.40;98.20
82231;DHT22;71832;45.138;9.816;2024-02-26T08:42:23;8.40;98.00
82231;DHT22;71832;45.138;9.816;2024-02-26T08:44:51;8.50;98.20
82231;DHT22;71832;45.138;9.816;2024-02-26T08:47:22;8.50;98.00
82231;DHT22;71832;45.138;9.816;2024-02-26T08:49:50;8.50;98.20
82231;DHT22;71832;45.138;9.816;2024-02-26T08:52:19;8.60;98.00
82231;DHT22;71832;45.138;9.816;2024-02-26T08:54:48;8.60;98.10
82231;DHT22;71832;45.138;9.816;2024-02-26T08:57:17;8.60;97.80
82231;DHT22;71832;45.138;9.816;2024-02-26T08:59:45;8.60;97.80
82231;DHT22;71832;45.138;9.816;2024-02-26T09:02:13;8.60;97.30
82231;DHT22;71832;45.138;9.816;2024-02-26T09:04:41;8.60;97.30
82231;DHT22;71832;45.138;9.816;2024-02-26T09:07:08;8.60;97.50
82231;DHT22;71832;45.138;9.816;2024-02-26T09:09:36;8.60;97.60
82231;DHT22;71832;45.138;9.816;2024-02-26T09:12:04;8.60;97.70
82231;DHT22;71832;45.138;9.816;2024-02-26T09:14:33;8.60;97.70
82231;DHT22;71832;45.138;9.816;2024-02-26T09:17:01;8.60;97.90
82231;DHT22;71832;45.138;9.816;2024-02-26T09:19:30;8.60;98.20
82231;DHT22;71832;45.138;9.816;2024-02-26T09:21:59;8.60;98.40
82231;DHT22;71832;45.138;9.816;2024-02-26T09:24:28;8.60;98.30
82231;DHT22;71832;45.138;9.816;2024-02-26T09:26:56;8.60;98.40
82231;DHT22;71832;45.138;9.816;2024-02-26T09:29:25;8.60;98.20
82231;DHT22;71832;45.138;9.816;2024-02-26T09:31:54;8.60;98.30
82231;DHT22;71832;45.138;9.816;2024-02-26T09:34:22;8.60;98.60
82231;DHT22;71832;45.138;9.816;2024-02-26T09:36:49;8.70;98.40
82231;DHT22;71832;45.138;9.816;2024-02-26T09:39:17;8.70;97.90
82231;DHT22;71832;45.138;9.816;2024-02-26T09:41:48;8.70;97.30
82231;DHT22;71832;45.138;9.816;2024-02-26T09:44:19;8.70;97.50
82231;DHT22;71832;45.138;9.816;2024-02-26T09:46:48;8.60;97.60
82231;DHT22;71832;45.138;9.816;2024-02-26T09:49:17;8.70;97.60
82231;DHT22;71832;45.138;9.816;2024-02-26T09:51:48;8.60;97.40
82231;DHT22;71832;45.138;9.816;2024-02-26T09:54:17;8.60;97.30
82231;DHT22;71832;45.138;9.816;2024-02-26T09:56:48;8.60;97.40
82231;DHT22;71832;45.138;9.816;2024-02-26T09:59:18;8.60;97.30
82231;DHT22;71832;45.138;9.816;2024-02-26T10:01:45;8.60;97.30
82231;DHT22;71832;45.138;9.816;2024-02-26T10:04:14;8.60;97.30
82231;DHT22;71832;45.138;9.816;2024-02-26T10:06:42;8.60;97.40
82231;DHT22;71832;45.138;9.816;2024-02-26T10:09:11;8.70;97.20
82231;DHT22;71832;45.138;9.816;2024-02-26T10:11:40;8.70;97.20
82231;DHT22;71832;45.138;9.816;2024-02-26T10:14:10;8.70;97.10
82231;DHT22;71832;45.138;9.816;2024-02-26T10:16:38;8.70;96.90
82231;DHT22;71832;45.138;9.816;2024-02-26T10:19:07;8.70;97.20
82231;DHT22;71832;45.138;9.816;2024-02-26T10:21:37;8.80;97.20
82231;DHT22;71832;45.138;9.816;2024-02-26T10:24:13;8.80;97.20
82231;DHT22;71832;45.138;9.816;2024-02-26T10:26:46;8.80;97.50
82231;DHT22;71832;45.138;9.816;2024-02-26T10:29:15;8.80;97.30
82231;DHT22;71832;45.138;9.816;2024-02-26T10:31:44;8.90;97.50
82231;DHT22;71832;45.138;9.816;2024-02-26T10:34:14;8.90;97.20
82231;DHT22;71832;45.138;9.816;2024-02-26T10:36:43;8.90;97.10
82231;DHT22;71832;45.138;9.816;2024-02-26T10:39:13;8.90;97.00
82231;DHT22;71832;45.138;9.816;2024-02-26T10:41:43;8.90;97.10
82231;DHT22;71832;45.138;9.816;2024-02-26T10:44:12;8.90;96.90
82231;DHT22;71832;45.138;9.816;2024-02-26T10:46:41;8.90;96.90
82231;DHT22;71832;45.138;9.816;2024-02-26T10:49:15;8.90;96.50
82231;DHT22;71832;45.138;9.816;2024-02-26T10:51:52;8.90;96.40
82231;DHT22;71832;45.138;9.816;2024-02-26T10:54:25;8.90;96.50
82231;DHT22;71832;45.138;9.816;2024-02-26T10:56:57;8.90;96.50
82231;DHT22;71832;45.138;9.816;2024-02-26T10:59:25;8.90;96.30
82231;DHT22;71832;45.138;9.816;2024-02-26T11:01:55;8.90;96.00
82231;DHT22;71832;45.138;9.816;2024-02-26T11:04:23;8.90;95.40
82231;DHT22;71832;45.138;9.816;2024-02-26T11:06:52;8.90;95.10
82231;DHT22;71832;45.138;9.816;2024-02-26T11:09:23;8.90;94.90
82231;DHT22;71832;45.138;9.816;2024-02-26T11:11:52;8.90;94.90
82231;DHT22;71832;45.138;9.816;2024-02-26T11:14:22;8.90;94.90
82231;DHT22;71832;45.138;9.816;2024-02-26T11:16:52;8.80;94.90
82231;DHT22;71832;45.138;9.816;2024-02-26T11:19:22;8.80;94.90
82231;DHT22;71832;45.138;9.816;2024-02-26T11:21:52;8.80;94.60
82231;DHT22;71832;45.138;9.816;2024-02-26T11:24:20;8.80;94.60
82231;DHT22;71832;45.138;9.816;2024-02-26T11:27:00;8.70;95.20
82231;DHT22;71832;45.138;9.816;2024-02-26T11:29:35;8.70;95.60
82231;DHT22;71832;45.138;9.816;2024-02-26T11:32:06;8.70;95.70
82231;DHT22;71832;45.138;9.816;2024-02-26T11:34:34;8.70;96.20
82231;DHT22;71832;45.138;9.816;2024-02-26T11:37:21;8.70;96.30
82231;DHT22;71832;45.138;9.816;2024-02-26T11:39:48;8.70;96.50
82231;DHT22;71832;45.138;9.816;2024-02-26T11:42:23;8.70;96.70
82231;DHT22;71832;45.138;9.816;2024-02-26T11:44:52;8.70;96.90
82231;DHT22;71832;45.138;9.816;2024-02-26T11:47:21;8.80;97.10
82231;DHT22;71832;45.138;9.816;2024-02-26T11:49:49;8.80;97.10
82231;DHT22;71832;45.138;9.816;2024-02-26T11:52:17;8.80;97.30
82231;DHT22;71832;45.138;9.816;2024-02-26T11:54:46;8.80;97.50
82231;DHT22;71832;45.138;9.816;2024-02-26T11:57:38;8.90;97.30
82231;DHT22;71832;45.138;9.816;2024-02-26T12:02:55;8.90;96.70
82231;DHT22;71832;45.138;9.816;2024-02-26T12:05:31;9.00;96.50
82231;DHT22;71832;45.138;9.816;2024-02-26T12:08:03;9.00;96.90
82231;DHT22;71832;45.138;9.816;2024-02-26T12:10:36;9.20;96.30
82231;DHT22;71832;45.138;9.816;2024-02-26T12:13:12;9.30;95.00
82231;DHT22;71832;45.138;9.816;2024-02-26T12:18:15;9.40;93.50
82231;DHT22;71832;45.138;9.816;2024-02-26T12:20:43;9.50;92.70
82231;DHT22;71832;45.138;9.816;2024-02-26T12:23:15;9.50;91.80
82231;DHT22;71832;45.138;9.816;2024-02-26T12:25:45;9.50;91.20
82231;DHT22;71832;45.138;9.816;2024-02-26T12:28:15;9.50;90.40
82231;DHT22;71832;45.138;9.816;2024-02-26T12:30:42;9.50;91.40
82231;DHT22;71832;45.138;9.816;2024-02-26T12:33:10;9.50;90.80
82231;DHT22;71832;45.138;9.816;2024-02-26T12:35:37;9.50;91.10
82231;DHT22;71832;45.138;9.816;2024-02-26T12:38:05;9.50;90.10
82231;DHT22;71832;45.138;9.816;2024-02-26T12:40:34;9.50;89.90
82231;DHT22;71832;45.138;9.816;2024-02-26T12:43:02;9.40;89.30
82231;DHT22;71832;45.138;9.816;2024-02-26T12:45:30;9.40;88.90
82231;DHT22;71832;45.138;9.816;2024-02-26T12:48:00;9.40;89.10
82231;DHT22;71832;45.138;9.816;2024-02-26T12:50:28;9.40;89.30
82231;DHT22;71832;45.138;9.816;2024-02-26T12:52:59;9.40;89.70
82231;DHT22;71832;45.138;9.816;2024-02-26T12:55:28;9.40;89.30
82231;DHT22;71832;45.138;9.816;2024-02-26T12:57:58;9.40;88.80
82231;DHT22;71832;45.138;9.816;2024-02-26T13:00:27;9.40;89.00
82231;DHT22;71832;45.138;9.816;2024-02-26T13:02:55;9.40;88.00
82231;DHT22;71832;45.138;9.816;2024-02-26T13:05:23;9.40;88.80
82231;DHT22;71832;45.138;9.816;2024-02-26T13:07:51;9.40;88.00
82231;DHT22;71832;45.138;9.816;2024-02-26T13:10:20;9.40;87.70
82231;DHT22;71832;45.138;9.816;2024-02-26T13:12:49;9.40;87.10
82231;DHT22;71832;45.138;9.816;2024-02-26T13:15:19;9.40;87.20
82231;DHT22;71832;45.138;9.816;2024-02-26T13:17:48;9.30;88.20
82231;DHT22;71832;45.138;9.816;2024-02-26T13:20:27;9.20;88.30
82231;DHT22;71832;45.138;9.816;2024-02-26T13:23:05;9.20;88.70
82231;DHT22;71832;45.138;9.816;2024-02-26T13:25:34;9.20;89.40
82231;DHT22;71832;45.138;9.816;2024-02-26T13:28:22;9.10;89.90
82231;DHT22;71832;45.138;9.816;2024-02-26T13:30:52;9.10;90.60
82231;DHT22;71832;45.138;9.816;2024-02-26T13:33:23;9.20;90.20
82231;DHT22;71832;45.138;9.816;2024-02-26T13:35:51;9.20;90.10
82231;DHT22;71832;45.138;9.816;2024-02-26T13:38:20;9.20;89.80
82231;DHT22;71832;45.138;9.816;2024-02-26T13:40:49;9.20;89.90
82231;DHT22;71832;45.138;9.816;2024-02-26T13:43:19;9.20;90.00
82231;DHT22;71832;45.138;9.816;2024-02-26T13:45:51;9.20;89.70
82231;DHT22;71832;45.138;9.816;2024-02-26T13:48:19;9.20;89.60
82231;DHT22;71832;45.138;9.816;2024-02-26T13:50:48;9.20;89.60
82231;DHT22;71832;45.138;9.816;2024-02-26T13:53:16;9.20;89.50
82231;DHT22;71832;45.138;9.816;2024-02-26T13:55:47;9.20;89.30
82231;DHT22;71832;45.138;9.816;2024-02-26T13:58:15;9.20;88.20
82231;DHT22;71832;45.138;9.816;2024-02-26T14:00:47;9.20;88.60
82231;DHT22;71832;45.138;9.816;2024-02-26T14:03:16;9.20;88.90
82231;DHT22;71832;45.138;9.816;2024-02-26T14:05:45;9.20;88.70
82231;DHT22;71832;45.138;9.816;2024-02-26T14:08:14;9.20;88.80
82231;DHT22;71832;45.138;9.816;2024-02-26T14:10:42;9.20;89.00
82231;DHT22;71832;45.138;9.816;2024-02-26T14:13:11;9.10;89.10
82231;DHT22;71832;45.138;9.816;2024-02-26T14:15:40;9.00;89.60
82231;DHT22;71832;45.138;9.816;2024-02-26T14:18:09;9.00;89.60
82231;DHT22;71832;45.138;9.816;2024-02-26T14:20:37;9.00;89.40
82231;DHT22;71832;45.138;9.816;2024-02-26T14:23:06;9.00;89.40
82231;DHT22;71832;45.138;9.816;2024-02-26T14:25:35;9.00;89.50
82231;DHT22;71832;45.138;9.816;2024-02-26T14:28:04;9.00;89.70
82231;DHT22;71832;45.138;9.816;2024-02-26T14:30:33;9.00;88.70
82231;DHT22;71832;45.138;9.816;2024-02-26T14:33:01;8.90;89.30
82231;DHT22;71832;45.138;9.816;2024-02-26T14:35:29;8.90;89.60
82231;DHT22;71832;45.138;9.816;2024-02-26T14:37:58;8.90;89.60
82231;DHT22;71832;45.138;9.816;2024-02-26T14:40:28;8.90;89.90
82231;DHT22;71832;45.138;9.816;2024-02-26T14:42:59;8.80;90.30
82231;DHT22;71832;45.138;9.816;2024-02-26T14:45:28;8.80;90.60
82231;DHT22;71832;45.138;9.816;2024-02-26T14:47:56;8.80;90.90
82231;DHT22;71832;45.138;9.816;2024-02-26T14:50:25;8.90;91.20
82231;DHT22;71832;45.138;9.816;2024-02-26T14:52:54;8.90;91.40
82231;DHT22;71832;45.138;9.816;2024-02-26T14:55:23;8.90;91.60
82231;DHT22;71832;45.138;9.816;2024-02-26T14:57:52;8.90;91.90
82231;DHT22;71832;45.138;9.816;2024-02-26T15:00:20;8.90;92.20
82231;DHT22;71832;45.138;9.816;2024-02-26T15:02:49;8.90;92.40
82231;DHT22;71832;45.138;9.816;2024-02-26T15:05:19;8.90;92.40
82231;DHT22;71832;45.138;9.816;2024-02-26T15:07:47;8.90;92.80
82231;DHT22;71832;45.138;9.816;2024-02-26T15:10:15;8.80;93.20
82231;DHT22;71832;45.138;9.816;2024-02-26T15:12:43;8.90;93.20
82231;DHT22;71832;45.138;9.816;2024-02-26T15:15:12;8.80;93.50
82231;DHT22;71832;45.138;9.816;2024-02-26T15:17:40;8.80;93.40
82231;DHT22;71832;45.138;9.816;2024-02-26T15:20:09;8.80;93.40
82231;DHT22;71832;45.138;9.816;2024-02-26T15:22:37;8.80;93.70
82231;DHT22;71832;45.138;9.816;2024-02-26T15:25:06;8.80;94.10
82231;DHT22;71832;45.138;9.816;2024-02-26T15:27:33;8.80;94.60
82231;DHT22;71832;45.138;9.816;2024-02-26T15:30:02;8.80;95.10
82231;DHT22;71832;45.138;9.816;2024-02-26T15:32:30;8.80;95.10
82231;DHT22;71832;45.138;9.816;2024-02-26T15:34:58;8.80;95.20
82231;DHT22;71832;45.138;9.816;2024-02-26T15:37:27;8.70;95.50
82231;DHT22;71832;45.138;9.816;2024-02-26T15:39:56;8.70;95.80
82231;DHT22;71832;45.138;9.816;2024-02-26T15:42:24;8.70;96.00
82231;DHT22;71832;45.138;9.816;2024-02-26T15:44:53;8.70;96.20
82231;DHT22;71832;45.138;9.816;2024-02-26T15:47:22;8.60;96.60
82231;DHT22;71832;45.138;9.816;2024-02-26T15:49:51;8.70;96.90
82231;DHT22;71832;45.138;9.816;2024-02-26T15:52:19;8.60;97.20
82231;DHT22;71832;45.138;9.816;2024-02-26T15:54:48;8.60;97.40
82231;DHT22;71832;45.138;9.816;2024-02-26T15:57:17;8.60;97.90
82231;DHT22;71832;45.138;9.816;2024-02-26T15:59:47;8.60;98.10
82231;DHT22;71832;45.138;9.816;2024-02-26T16:02:17;8.60;98.30